sensor_id;sensor_type;location;lat;lon;timestamp;temperature;humidity
13211;DHT22;6670;51.53087800;7.23266500;2022-09-02T00:01:14;18.90;68.00
13211;DHT22;6670;51.53087800;7.23266500;2022-09-02T00:03:42;18.90;67.60
13211;DHT22;6670;51.53087800;7.23266500;2022-09-02T00:06:09;18.90;69.00
13211;DHT22;6670;51.53087800;7.23266500;2022-09-02T00:08:38;18.70;69.40
13211;DHT22;6670;51.53087800;7.23266500;2022-09-02T00:11:06;18.90;70.00
13211;DHT22;6670;51.53087800;7.23266500;2022-09-02T00:13:35;18.90;70.90
13211;DHT22;6670;51.53087800;7.23266500;2022-09-02T00:16:04;18.80;70.60
13211;DHT22;6670;51.53087800;7.23266500;2022-09-02T00:18:32;18.80;70.70
13211;DHT22;6670;51.53087800;7.23266500;2022-09-02T00:21:00;18.70;71.50
13211;DHT22;6670;51.53087800;7.23266500;2022-09-02T00:23:28;18.70;71.90
13211;DHT22;6670;51.53087800;7.23266500;2022-09-02T00:25:55;18.70;71.80
13211;DHT22;6670;51.53087800;7.23266500;2022-09-02T00:28:23;18.70;71.70
13211;DHT22;6670;51.53087800;7.23266500;2022-09-02T00:30:51;18.70;72.30
13211;DHT22;6670;51.53087800;7.23266500;2022-09-02T00:33:20;18.60;72.70
13211;DHT22;6670;51.53087800;7.23266500;2022-09-02T00:35:49;18.70;73.30
13211;DHT22;6670;51.53087800;7.23266500;2022-09-02T00:38:16;18.70;73.80
13211;DHT22;6670;51.53087800;7.23266500;2022-09-02T00:40:45;18.80;73.70
13211;DHT22;6670;51.53087800;7.23266500;2022-09-02T00:43:22;18.60;73.80
13211;DHT22;6670;51.53087800;7.23266500;2022-09-02T00:45:50;18.60;74.50
13211;DHT22;6670;51.53087800;7.23266500;2022-09-02T00:48:20;18.60;74.90
13211;DHT22;6670;51.53087800;7.23266500;2022-09-02T00:50:47;18.50;76.30
13211;DHT22;6670;51.53087800;7.23266500;2022-09-02T00:53:16;18.50;76.90
13211;DHT22;6670;51.53087800;7.23266500;2022-09-02T00:55:50;18.30;78.10
13211;DHT22;6670;51.53087800;7.23266500;2022-09-02T00:58:21;18.20;78.60
13211;DHT22;6670;51.53087800;7.23266500;2022-09-02T01:00:52;18.30;79.40
13211;DHT22;6670;51.53087800;7.23266500;2022-09-02T01:03:29;18.40;79.60
13211;DHT22;6670;51.53087800;7.23266500;2022-09-02T01:05:58;18.30;79.40
13211;DHT22;6670;51.53087800;7.23266500;2022-09-02T01:08:31;18.40;79.50
13211;DHT22;6670;51.53087800;7.23266500;2022-09-02T01:11:00;18.30;79.70
13211;DHT22;6670;51.53087800;7.23266500;2022-09-02T01:13:30;18.40;79.50
13211;DHT22;6670;51.53087800;7.23266500;2022-09-02T01:16:10;18.50;79.60
13211;DHT22;6670;51.53087800;7.23266500;2022-09-02T01:18:42;18.60;78.50
13211;DHT22;6670;51.53087800;7.23266500;2022-09-02T01:21:11;18.60;78.00
13211;DHT22;6670;51.53087800;7.23266500;2022-09-02T01:23:40;18.40;79.30
13211;DHT22;6670;51.53087800;7.23266500;2022-09-02T01:26:08;18.30;79.90
13211;DHT22;6670;51.53087800;7.23266500;2022-09-02T01:28:36;18.20;80.90
13211;DHT22;6670;51.53087800;7.23266500;2022-09-02T01:31:04;18.10;81.40
13211;DHT22;6670;51.53087800;7.23266500;2022-09-02T01:33:32;18.20;81.10
13211;DHT22;6670;51.53087800;7.23266500;2022-09-02T01:36:00;18.20;81.90
13211;DHT22;6670;51.53087800;7.23266500;2022-09-02T01:38:30;18.20;81.90
13211;DHT22;6670;51.53087800;7.23266500;2022-09-02T01:40:58;18.20;81.90
13211;DHT22;6670;51.53087800;7.23266500;2022-09-02T01:43:27;18.20;81.80
13211;DHT22;6670;51.53087800;7.23266500;2022-09-02T01:45:56;18.10;82.10
13211;DHT22;6670;51.53087800;7.23266500;2022-09-02T01:48:27;18.20;82.30
13211;DHT22;6670;51.53087800;7.23266500;2022-09-02T01:50:57;18.10;82.80
13211;DHT22;6670;51.53087800;7.23266500;2022-09-02T01:53:26;18.00;83.30
13211;DHT22;6670;51.53087800;7.23266500;2022-09-02T01:55:58;17.90;83.90
13211;DHT22;6670;51.53087800;7.23266500;2022-09-02T01:58:29;17.80;84.80
13211;DHT22;6670;51.53087800;7.23266500;2022-09-02T02:00:56;17.80;85.70
13211;DHT22;6670;51.53087800;7.23266500;2022-09-02T02:03:24;17.60;86.60
13211;DHT22;6670;51.53087800;7.23266500;2022-09-02T02:05:51;17.50;88.00
13211;DHT22;6670;51.53087800;7.23266500;2022-09-02T02:08:20;17.50;88.30
13211;DHT22;6670;51.53087800;7.23266500;2022-09-02T02:10:49;17.50;88.50
13211;DHT22;6670;51.53087800;7.23266500;2022-09-02T02:13:19;17.50;88.60
13211;DHT22;6670;51.53087800;7.23266500;2022-09-02T02:15:46;17.50;88.80
13211;DHT22;6670;51.53087800;7.23266500;2022-09-02T02:18:13;17.50;88.50
13211;DHT22;6670;51.53087800;7.23266500;2022-09-02T02:20:42;17.50;88.90
13211;DHT22;6670;51.53087800;7.23266500;2022-09-02T02:23:09;17.40;88.80
13211;DHT22;6670;51.53087800;7.23266500;2022-09-02T02:25:37;17.30;88.50
13211;DHT22;6670;51.53087800;7.23266500;2022-09-02T02:28:05;17.30;89.10
13211;DHT22;6670;51.53087800;7.23266500;2022-09-02T02:30:34;17.30;89.40
13211;DHT22;6670;51.53087800;7.23266500;2022-09-02T02:33:02;17.20;88.90
13211;DHT22;6670;51.53087800;7.23266500;2022-09-02T02:35:30;17.30;89.20
13211;DHT22;6670;51.53087800;7.23266500;2022-09-02T02:37:57;17.30;88.50
13211;DHT22;6670;51.53087800;7.23266500;2022-09-02T02:40:25;17.40;88.40
13211;DHT22;6670;51.53087800;7.23266500;2022-09-02T02:42:53;17.30;89.00
13211;DHT22;6670;51.53087800;7.23266500;2022-09-02T02:45:23;17.30;88.20
13211;DHT22;6670;51.53087800;7.23266500;2022-09-02T02:47:53;17.20;88.90
13211;DHT22;6670;51.53087800;7.23266500;2022-09-02T02:50:22;17.40;88.70
13211;DHT22;6670;51.53087800;7.23266500;2022-09-02T02:52:50;17.40;88.40
13211;DHT22;6670;51.53087800;7.23266500;2022-09-02T02:55:21;17.60;87.50
13211;DHT22;6670;51.53087800;7.23266500;2022-09-02T02:57:50;17.70;86.80
13211;DHT22;6670;51.53087800;7.23266500;2022-09-02T03:00:21;17.70;86.70
13211;DHT22;6670;51.53087800;7.23266500;2022-09-02T03:02:49;17.60;86.40
13211;DHT22;6670;51.53087800;7.23266500;2022-09-02T03:05:21;17.70;86.50
13211;DHT22;6670;51.53087800;7.23266500;2022-09-02T03:07:50;17.50;87.30
13211;DHT22;6670;51.53087800;7.23266500;2022-09-02T03:10:18;17.40;87.70
13211;DHT22;6670;51.53087800;7.23266500;2022-09-02T03:12:46;17.30;88.20
13211;DHT22;6670;51.53087800;7.23266500;2022-09-02T03:15:18;17.20;88.60
13211;DHT22;6670;51.53087800;7.23266500;2022-09-02T03:17:49;17.30;88.60
13211;DHT22;6670;51.53087800;7.23266500;2022-09-02T03:20:18;17.40;88.50
13211;DHT22;6670;51.53087800;7.23266500;2022-09-02T03:22:53;17.30;88.10
13211;DHT22;6670;51.53087800;7.23266500;2022-09-02T03:25:22;17.40;88.50
13211;DHT22;6670;51.53087800;7.23266500;2022-09-02T03:27:53;17.40;88.00
13211;DHT22;6670;51.53087800;7.23266500;2022-09-02T03:30:30;17.10;88.90
13211;DHT22;6670;51.53087800;7.23266500;2022-09-02T03:32:59;17.30;87.90
13211;DHT22;6670;51.53087800;7.23266500;2022-09-02T03:35:28;17.30;88.60
13211;DHT22;6670;51.53087800;7.23266500;2022-09-02T03:37:59;17.30;88.10
13211;DHT22;6670;51.53087800;7.23266500;2022-09-02T03:40:28;17.30;88.60
13211;DHT22;6670;51.53087800;7.23266500;2022-09-02T03:42:56;17.30;87.90
13211;DHT22;6670;51.53087800;7.23266500;2022-09-02T03:45:23;17.20;88.60
13211;DHT22;6670;51.53087800;7.23266500;2022-09-02T03:47:51;17.20;88.60
13211;DHT22;6670;51.53087800;7.23266500;2022-09-02T03:50:26;17.20;88.50
13211;DHT22;6670;51.53087800;7.23266500;2022-09-02T03:52:56;17.30;88.40
13211;DHT22;6670;51.53087800;7.23266500;2022-09-02T03:55:26;17.30;88.00
13211;DHT22;6670;51.53087800;7.23266500;2022-09-02T03:57:54;17.30;88.20
13211;DHT22;6670;51.53087800;7.23266500;2022-09-02T04:00:24;17.20;88.70
13211;DHT22;6670;51.53087800;7.23266500;2022-09-02T04:02:55;17.00;88.50
13211;DHT22;6670;51.53087800;7.23266500;2022-09-02T04:05:23;16.90;90.10
13211;DHT22;6670;51.53087800;7.23266500;2022-09-02T04:07:53;17.00;89.90
13211;DHT22;6670;51.53087800;7.23266500;2022-09-02T04:10:24;17.00;90.10
13211;DHT22;6670;51.53087800;7.23266500;2022-09-02T04:12:52;17.00;89.10
13211;DHT22;6670;51.53087800;7.23266500;2022-09-02T04:15:20;17.00;89.40
13211;DHT22;6670;51.53087800;7.23266500;2022-09-02T04:17:50;17.10;89.50
13211;DHT22;6670;51.53087800;7.23266500;2022-09-02T04:20:19;17.10;89.10
13211;DHT22;6670;51.53087800;7.23266500;2022-09-02T04:22:48;17.10;89.20
13211;DHT22;6670;51.53087800;7.23266500;2022-09-02T04:25:16;16.90;90.00
13211;DHT22;6670;51.53087800;7.23266500;2022-09-02T04:27:47;17.10;90.00
13211;DHT22;6670;51.53087800;7.23266500;2022-09-02T04:30:15;17.10;90.00
13211;DHT22;6670;51.53087800;7.23266500;2022-09-02T04:32:45;17.10;89.90
13211;DHT22;6670;51.53087800;7.23266500;2022-09-02T04:35:12;16.90;90.20
13211;DHT22;6670;51.53087800;7.23266500;2022-09-02T04:37:41;17.20;90.00
13211;DHT22;6670;51.53087800;7.23266500;2022-09-02T04:40:09;17.00;89.60
13211;DHT22;6670;51.53087800;7.23266500;2022-09-02T04:42:37;17.10;89.80
13211;DHT22;6670;51.53087800;7.23266500;2022-09-02T04:45:09;17.10;89.90
13211;DHT22;6670;51.53087800;7.23266500;2022-09-02T04:47:39;17.10;89.90
13211;DHT22;6670;51.53087800;7.23266500;2022-09-02T04:50:07;17.10;90.10
13211;DHT22;6670;51.53087800;7.23266500;2022-09-02T04:52:36;17.00;90.20
13211;DHT22;6670;51.53087800;7.23266500;2022-09-02T04:55:05;16.80;90.70
13211;DHT22;6670;51.53087800;7.23266500;2022-09-02T04:57:33;16.90;90.80
13211;DHT22;6670;51.53087800;7.23266500;2022-09-02T05:00:05;16.90;90.40
13211;DHT22;6670;51.53087800;7.23266500;2022-09-02T05:02:35;16.80;91.10
13211;DHT22;6670;51.53087800;7.23266500;2022-09-02T05:05:09;16.80;90.90
13211;DHT22;6670;51.53087800;7.23266500;2022-09-02T05:07:39;16.90;90.80
13211;DHT22;6670;51.53087800;7.23266500;2022-09-02T05:10:08;17.00;90.90
13211;DHT22;6670;51.53087800;7.23266500;2022-09-02T05:12:44;16.80;91.10
13211;DHT22;6670;51.53087800;7.23266500;2022-09-02T05:15:12;16.90;90.90
13211;DHT22;6670;51.53087800;7.23266500;2022-09-02T05:17:42;16.90;90.80
13211;DHT22;6670;51.53087800;7.23266500;2022-09-02T05:20:15;16.90;90.90
13211;DHT22;6670;51.53087800;7.23266500;2022-09-02T05:22:44;16.90;91.00
13211;DHT22;6670;51.53087800;7.23266500;2022-09-02T05:25:26;16.90;91.10
13211;DHT22;6670;51.53087800;7.23266500;2022-09-02T05:27:53;16.90;90.80
13211;DHT22;6670;51.53087800;7.23266500;2022-09-02T05:30:24;16.90;90.90
13211;DHT22;6670;51.53087800;7.23266500;2022-09-02T05:32:54;17.00;90.70
13211;DHT22;6670;51.53087800;7.23266500;2022-09-02T05:35:40;17.00;90.70
13211;DHT22;6670;51.53087800;7.23266500;2022-09-02T05:38:09;16.90;91.30
13211;DHT22;6670;51.53087800;7.23266500;2022-09-02T05:40:39;16.80;91.20
13211;DHT22;6670;51.53087800;7.23266500;2022-09-02T05:43:17;16.80;91.50
13211;DHT22;6670;51.53087800;7.23266500;2022-09-02T05:45:56;17.00;91.30
13211;DHT22;6670;51.53087800;7.23266500;2022-09-02T05:48:26;16.90;91.30
13211;DHT22;6670;51.53087800;7.23266500;2022-09-02T05:51:11;17.20;91.10
13211;DHT22;6670;51.53087800;7.23266500;2022-09-02T05:53:40;17.20;91.10
13211;DHT22;6670;51.53087800;7.23266500;2022-09-02T05:56:08;17.30;90.80
13211;DHT22;6670;51.53087800;7.23266500;2022-09-02T05:58:37;17.30;91.00
13211;DHT22;6670;51.53087800;7.23266500;2022-09-02T06:01:08;17.40;90.80
13211;DHT22;6670;51.53087800;7.23266500;2022-09-02T06:03:38;17.40;90.60
13211;DHT22;6670;51.53087800;7.23266500;2022-09-02T06:06:07;17.50;90.90
13211;DHT22;6670;51.53087800;7.23266500;2022-09-02T06:08:38;17.40;90.90
13211;DHT22;6670;51.53087800;7.23266500;2022-09-02T06:11:09;17.30;91.00
13211;DHT22;6670;51.53087800;7.23266500;2022-09-02T06:13:38;17.20;91.10
13211;DHT22;6670;51.53087800;7.23266500;2022-09-02T06:16:07;17.20;91.50
13211;DHT22;6670;51.53087800;7.23266500;2022-09-02T06:18:42;17.20;91.30
13211;DHT22;6670;51.53087800;7.23266500;2022-09-02T06:21:11;17.20;91.50
13211;DHT22;6670;51.53087800;7.23266500;2022-09-02T06:23:42;17.00;91.60
13211;DHT22;6670;51.53087800;7.23266500;2022-09-02T06:26:13;17.20;91.50
13211;DHT22;6670;51.53087800;7.23266500;2022-09-02T06:28:40;17.20;91.50
13211;DHT22;6670;51.53087800;7.23266500;2022-09-02T06:31:11;17.20;91.90
13211;DHT22;6670;51.53087800;7.23266500;2022-09-02T06:33:42;17.20;91.90
13211;DHT22;6670;51.53087800;7.23266500;2022-09-02T06:36:13;17.30;91.80
13211;DHT22;6670;51.53087800;7.23266500;2022-09-02T06:38:43;17.40;91.70
13211;DHT22;6670;51.53087800;7.23266500;2022-09-02T06:41:12;17.40;91.70
13211;DHT22;6670;51.53087800;7.23266500;2022-09-02T06:43:42;17.40;91.70
13211;DHT22;6670;51.53087800;7.23266500;2022-09-02T06:46:18;17.50;91.60
13211;DHT22;6670;51.53087800;7.23266500;2022-09-02T06:48:49;17.50;91.50
13211;DHT22;6670;51.53087800;7.23266500;2022-09-02T06:51:21;17.60;91.90
13211;DHT22;6670;51.53087800;7.23266500;2022-09-02T06:53:51;17.70;91.90
13211;DHT22;6670;51.53087800;7.23266500;2022-09-02T06:56:20;17.60;92.10
13211;DHT22;6670;51.53087800;7.23266500;2022-09-02T06:58:48;17.70;92.10
13211;DHT22;6670;51.53087800;7.23266500;2022-09-02T07:01:19;17.80;92.30
13211;DHT22;6670;51.53087800;7.23266500;2022-09-02T07:03:48;18.00;91.70
13211;DHT22;6670;51.53087800;7.23266500;2022-09-02T07:06:34;18.10;91.60
13211;DHT22;6670;51.53087800;7.23266500;2022-09-02T07:09:03;18.00;91.90
13211;DHT22;6670;51.53087800;7.23266500;2022-09-02T07:11:33;17.90;91.80
13211;DHT22;6670;51.53087800;7.23266500;2022-09-02T07:14:05;17.80;92.10
13211;DHT22;6670;51.53087800;7.23266500;2022-09-02T07:16:36;17.90;92.50
13211;DHT22;6670;51.53087800;7.23266500;2022-09-02T07:19:05;18.00;92.20
13211;DHT22;6670;51.53087800;7.23266500;2022-09-02T07:21:33;18.10;92.20
13211;DHT22;6670;51.53087800;7.23266500;2022-09-02T07:24:01;18.10;92.40
13211;DHT22;6670;51.53087800;7.23266500;2022-09-02T07:26:29;18.00;92.50
13211;DHT22;6670;51.53087800;7.23266500;2022-09-02T07:28:57;18.20;92.10
13211;DHT22;6670;51.53087800;7.23266500;2022-09-02T07:31:25;18.40;91.90
13211;DHT22;6670;51.53087800;7.23266500;2022-09-02T07:33:56;18.60;91.40
13211;DHT22;6670;51.53087800;7.23266500;2022-09-02T07:36:32;18.40;91.60
13211;DHT22;6670;51.53087800;7.23266500;2022-09-02T07:39:06;18.60;91.60
13211;DHT22;6670;51.53087800;7.23266500;2022-09-02T07:41:35;18.80;91.50
13211;DHT22;6670;51.53087800;7.23266500;2022-09-02T07:44:04;19.00;90.90
13211;DHT22;6670;51.53087800;7.23266500;2022-09-02T07:46:37;19.40;90.50
13211;DHT22;6670;51.53087800;7.23266500;2022-09-02T07:49:11;19.50;89.70
13211;DHT22;6670;51.53087800;7.23266500;2022-09-02T07:51:42;19.70;89.80
13211;DHT22;6670;51.53087800;7.23266500;2022-09-02T07:54:11;19.90;89.00
13211;DHT22;6670;51.53087800;7.23266500;2022-09-02T07:56:39;20.00;88.40
13211;DHT22;6670;51.53087800;7.23266500;2022-09-02T07:59:09;20.00;88.60
13211;DHT22;6670;51.53087800;7.23266500;2022-09-02T08:01:38;20.00;89.00
13211;DHT22;6670;51.53087800;7.23266500;2022-09-02T08:04:05;19.50;90.10
13211;DHT22;6670;51.53087800;7.23266500;2022-09-02T08:06:35;19.60;90.30
13211;DHT22;6670;51.53087800;7.23266500;2022-09-02T08:09:06;19.70;90.10
13211;DHT22;6670;51.53087800;7.23266500;2022-09-02T08:11:36;19.90;90.30
13211;DHT22;6670;51.53087800;7.23266500;2022-09-02T08:14:04;19.90;90.30
13211;DHT22;6670;51.53087800;7.23266500;2022-09-02T08:16:32;19.90;88.70
13211;DHT22;6670;51.53087800;7.23266500;2022-09-02T08:19:00;19.90;89.90
13211;DHT22;6670;51.53087800;7.23266500;2022-09-02T08:21:27;20.00;89.60
13211;DHT22;6670;51.53087800;7.23266500;2022-09-02T08:23:56;20.10;88.40
13211;DHT22;6670;51.53087800;7.23266500;2022-09-02T08:26:25;20.10;87.90
13211;DHT22;6670;51.53087800;7.23266500;2022-09-02T08:28:53;20.00;88.50
13211;DHT22;6670;51.53087800;7.23266500;2022-09-02T08:31:21;20.10;88.40
13211;DHT22;6670;51.53087800;7.23266500;2022-09-02T08:33:48;20.00;88.40
13211;DHT22;6670;51.53087800;7.23266500;2022-09-02T08:36:16;20.10;88.30
13211;DHT22;6670;51.53087800;7.23266500;2022-09-02T08:38:43;20.30;89.00
13211;DHT22;6670;51.53087800;7.23266500;2022-09-02T08:41:24;20.50;88.70
13211;DHT22;6670;51.53087800;7.23266500;2022-09-02T08:43:55;20.60;89.00
13211;DHT22;6670;51.53087800;7.23266500;2022-09-02T08:46:25;20.70;88.50
13211;DHT22;6670;51.53087800;7.23266500;2022-09-02T08:48:57;20.70;88.20
13211;DHT22;6670;51.53087800;7.23266500;2022-09-02T08:51:30;20.80;88.40
13211;DHT22;6670;51.53087800;7.23266500;2022-09-02T08:54:03;20.60;88.60
13211;DHT22;6670;51.53087800;7.23266500;2022-09-02T08:56:31;20.70;89.50
13211;DHT22;6670;51.53087800;7.23266500;2022-09-02T08:59:02;20.70;89.80
13211;DHT22;6670;51.53087800;7.23266500;2022-09-02T09:01:39;20.90;89.20
13211;DHT22;6670;51.53087800;7.23266500;2022-09-02T09:04:19;21.10;89.10
13211;DHT22;6670;51.53087800;7.23266500;2022-09-02T09:07:12;21.10;88.40
13211;DHT22;6670;51.53087800;7.23266500;2022-09-02T09:09:54;21.10;87.70
13211;DHT22;6670;51.53087800;7.23266500;2022-09-02T09:12:31;21.20;87.30
13211;DHT22;6670;51.53087800;7.23266500;2022-09-02T09:15:10;21.40;87.30
13211;DHT22;6670;51.53087800;7.23266500;2022-09-02T09:17:43;21.40;87.60
13211;DHT22;6670;51.53087800;7.23266500;2022-09-02T09:20:16;21.40;88.00
13211;DHT22;6670;51.53087800;7.23266500;2022-09-02T09:22:45;21.50;88.30
13211;DHT22;6670;51.53087800;7.23266500;2022-09-02T09:25:16;21.60;86.60
13211;DHT22;6670;51.53087800;7.23266500;2022-09-02T09:27:44;21.40;87.50
13211;DHT22;6670;51.53087800;7.23266500;2022-09-02T09:30:14;21.60;87.60
13211;DHT22;6670;51.53087800;7.23266500;2022-09-02T09:32:45;21.70;87.00
13211;DHT22;6670;51.53087800;7.23266500;2022-09-02T09:35:15;21.70;86.60
13211;DHT22;6670;51.53087800;7.23266500;2022-09-02T09:37:44;21.80;85.80
13211;DHT22;6670;51.53087800;7.23266500;2022-09-02T09:40:28;21.50;86.00
13211;DHT22;6670;51.53087800;7.23266500;2022-09-02T09:42:58;21.70;85.50
13211;DHT22;6670;51.53087800;7.23266500;2022-09-02T09:45:30;21.70;86.00
13211;DHT22;6670;51.53087800;7.23266500;2022-09-02T09:48:17;21.90;85.00
13211;DHT22;6670;51.53087800;7.23266500;2022-09-02T09:51:11;21.80;85.00
13211;DHT22;6670;51.53087800;7.23266500;2022-09-02T09:56:47;22.00;84.90
13211;DHT22;6670;51.53087800;7.23266500;2022-09-02T09:59:35;22.30;83.70
13211;DHT22;6670;51.53087800;7.23266500;2022-09-02T10:02:25;22.40;83.80
13211;DHT22;6670;51.53087800;7.23266500;2022-09-02T10:05:48;22.50;83.00
13211;DHT22;6670;51.53087800;7.23266500;2022-09-02T10:08:28;22.60;83.30
13211;DHT22;6670;51.53087800;7.23266500;2022-09-02T10:10:59;22.80;83.20
13211;DHT22;6670;51.53087800;7.23266500;2022-09-02T10:13:31;22.70;82.20
13211;DHT22;6670;51.53087800;7.23266500;2022-09-02T10:16:11;22.90;82.20
13211;DHT22;6670;51.53087800;7.23266500;2022-09-02T10:18:47;22.90;81.70
13211;DHT22;6670;51.53087800;7.23266500;2022-09-02T10:21:32;23.00;80.30
13211;DHT22;6670;51.53087800;7.23266500;2022-09-02T10:24:11;23.30;79.60
13211;DHT22;6670;51.53087800;7.23266500;2022-09-02T10:26:47;23.10;77.30
13211;DHT22;6670;51.53087800;7.23266500;2022-09-02T10:29:46;23.30;78.50
13211;DHT22;6670;51.53087800;7.23266500;2022-09-02T10:32:28;23.40;76.60
13211;DHT22;6670;51.53087800;7.23266500;2022-09-02T10:35:07;23.60;77.30
13211;DHT22;6670;51.53087800;7.23266500;2022-09-02T10:37:42;23.70;77.20
13211;DHT22;6670;51.53087800;7.23266500;2022-09-02T10:40:16;23.80;76.10
13211;DHT22;6670;51.53087800;7.23266500;2022-09-02T10:42:54;24.00;74.90
13211;DHT22;6670;51.53087800;7.23266500;2022-09-02T10:45:30;24.20;74.60
13211;DHT22;6670;51.53087800;7.23266500;2022-09-02T10:48:13;24.40;74.10
13211;DHT22;6670;51.53087800;7.23266500;2022-09-02T10:54:39;24.20;72.10
13211;DHT22;6670;51.53087800;7.23266500;2022-09-02T10:57:14;24.10;73.60
13211;DHT22;6670;51.53087800;7.23266500;2022-09-02T10:59:48;23.90;74.00
13211;DHT22;6670;51.53087800;7.23266500;2022-09-02T11:02:22;23.80;73.30
13211;DHT22;6670;51.53087800;7.23266500;2022-09-02T11:04:54;23.80;72.90
13211;DHT22;6670;51.53087800;7.23266500;2022-09-02T11:07:28;23.90;73.90
13211;DHT22;6670;51.53087800;7.23266500;2022-09-02T11:10:02;24.00;72.70
13211;DHT22;6670;51.53087800;7.23266500;2022-09-02T11:12:36;24.10;71.20
13211;DHT22;6670;51.53087800;7.23266500;2022-09-02T11:15:09;24.10;69.90
13211;DHT22;6670;51.53087800;7.23266500;2022-09-02T11:17:43;23.90;70.10
13211;DHT22;6670;51.53087800;7.23266500;2022-09-02T11:20:17;24.00;69.90
13211;DHT22;6670;51.53087800;7.23266500;2022-09-02T11:23:02;23.90;70.10
13211;DHT22;6670;51.53087800;7.23266500;2022-09-02T11:25:37;24.10;70.20
13211;DHT22;6670;51.53087800;7.23266500;2022-09-02T11:28:25;24.10;68.20
13211;DHT22;6670;51.53087800;7.23266500;2022-09-02T11:30:59;24.00;66.30
13211;DHT22;6670;51.53087800;7.23266500;2022-09-02T11:33:37;24.20;63.50
13211;DHT22;6670;51.53087800;7.23266500;2022-09-02T11:36:09;24.40;61.00
13211;DHT22;6670;51.53087800;7.23266500;2022-09-02T11:38:41;24.70;59.10
13211;DHT22;6670;51.53087800;7.23266500;2022-09-02T11:41:25;24.60;55.00
13211;DHT22;6670;51.53087800;7.23266500;2022-09-02T11:43:56;24.80;55.20
13211;DHT22;6670;51.53087800;7.23266500;2022-09-02T11:47:06;24.50;55.40
13211;DHT22;6670;51.53087800;7.23266500;2022-09-02T11:50:02;24.60;55.80
13211;DHT22;6670;51.53087800;7.23266500;2022-09-02T11:52:53;24.50;55.30
13211;DHT22;6670;51.53087800;7.23266500;2022-09-02T11:55:28;24.40;54.50
13211;DHT22;6670;51.53087800;7.23266500;2022-09-02T11:57:57;24.20;54.40
13211;DHT22;6670;51.53087800;7.23266500;2022-09-02T12:00:30;24.50;53.80
13211;DHT22;6670;51.53087800;7.23266500;2022-09-02T12:03:13;24.60;53.90
13211;DHT22;6670;51.53087800;7.23266500;2022-09-02T12:05:46;24.40;52.10
13211;DHT22;6670;51.53087800;7.23266500;2022-09-02T12:11:51;24.30;51.90
13211;DHT22;6670;51.53087800;7.23266500;2022-09-02T12:21:08;24.70;52.50
13211;DHT22;6670;51.53087800;7.23266500;2022-09-02T12:24:08;24.80;49.80
13211;DHT22;6670;51.53087800;7.23266500;2022-09-02T12:27:02;24.60;50.50
13211;DHT22;6670;51.53087800;7.23266500;2022-09-02T12:29:31;24.50;49.80
13211;DHT22;6670;51.53087800;7.23266500;2022-09-02T12:31:59;24.50;50.00
13211;DHT22;6670;51.53087800;7.23266500;2022-09-02T12:34:54;24.50;50.10
13211;DHT22;6670;51.53087800;7.23266500;2022-09-02T12:37:56;24.60;46.90
13211;DHT22;6670;51.53087800;7.23266500;2022-09-02T12:40:39;24.80;45.50
13211;DHT22;6670;51.53087800;7.23266500;2022-09-02T12:43:18;25.50;43.70
13211;DHT22;6670;51.53087800;7.23266500;2022-09-02T12:45:54;25.70;40.70
13211;DHT22;6670;51.53087800;7.23266500;2022-09-02T12:48:36;25.70;40.90
13211;DHT22;6670;51.53087800;7.23266500;2022-09-02T12:51:08;25.90;40.70
13211;DHT22;6670;51.53087800;7.23266500;2022-09-02T12:53:39;26.40;38.70
13211;DHT22;6670;51.53087800;7.23266500;2022-09-02T12:56:18;26.40;37.50
13211;DHT22;6670;51.53087800;7.23266500;2022-09-02T12:58:52;26.70;37.60
13211;DHT22;6670;51.53087800;7.23266500;2022-09-02T13:01:28;26.40;38.40
13211;DHT22;6670;51.53087800;7.23266500;2022-09-02T13:04:13;26.80;37.30
13211;DHT22;6670;51.53087800;7.23266500;2022-09-02T13:09:45;26.70;37.30
13211;DHT22;6670;51.53087800;7.23266500;2022-09-02T13:15:40;27.40;36.50
13211;DHT22;6670;51.53087800;7.23266500;2022-09-02T13:18:32;27.60;35.70
13211;DHT22;6670;51.53087800;7.23266500;2022-09-02T13:21:16;27.30;34.60
13211;DHT22;6670;51.53087800;7.23266500;2022-09-02T13:24:08;27.10;34.40
13211;DHT22;6670;51.53087800;7.23266500;2022-09-02T13:26:57;27.40;34.20
13211;DHT22;6670;51.53087800;7.23266500;2022-09-02T13:29:50;28.00;33.80
13211;DHT22;6670;51.53087800;7.23266500;2022-09-02T13:32:23;28.40;33.10
13211;DHT22;6670;51.53087800;7.23266500;2022-09-02T13:34:53;27.40;34.30
13211;DHT22;6670;51.53087800;7.23266500;2022-09-02T13:37:33;27.60;34.70
13211;DHT22;6670;51.53087800;7.23266500;2022-09-02T13:40:05;28.10;32.40
13211;DHT22;6670;51.53087800;7.23266500;2022-09-02T13:42:33;28.20;31.90
13211;DHT22;6670;51.53087800;7.23266500;2022-09-02T13:45:12;28.50;32.10
13211;DHT22;6670;51.53087800;7.23266500;2022-09-02T13:47:44;28.40;32.30
13211;DHT22;6670;51.53087800;7.23266500;2022-09-02T13:50:14;27.70;33.30
13211;DHT22;6670;51.53087800;7.23266500;2022-09-02T13:52:45;28.30;32.90
13211;DHT22;6670;51.53087800;7.23266500;2022-09-02T13:55:15;27.90;33.00
13211;DHT22;6670;51.53087800;7.23266500;2022-09-02T13:57:53;27.70;32.30
13211;DHT22;6670;51.53087800;7.23266500;2022-09-02T14:00:31;27.70;32.20
13211;DHT22;6670;51.53087800;7.23266500;2022-09-02T14:03:02;28.00;33.00
13211;DHT22;6670;51.53087800;7.23266500;2022-09-02T14:05:31;28.40;31.90
13211;DHT22;6670;51.53087800;7.23266500;2022-09-02T14:08:02;28.40;31.60
13211;DHT22;6670;51.53087800;7.23266500;2022-09-02T14:10:34;27.60;31.40
13211;DHT22;6670;51.53087800;7.23266500;2022-09-02T14:13:06;27.50;32.20
13211;DHT22;6670;51.53087800;7.23266500;2022-09-02T14:15:34;27.90;31.70
13211;DHT22;6670;51.53087800;7.23266500;2022-09-02T14:18:13;27.10;33.10
13211;DHT22;6670;51.53087800;7.23266500;2022-09-02T14:20:56;27.60;33.70
13211;DHT22;6670;51.53087800;7.23266500;2022-09-02T14:23:26;27.80;33.80
13211;DHT22;6670;51.53087800;7.23266500;2022-09-02T14:25:57;28.40;33.40
13211;DHT22;6670;51.53087800;7.23266500;2022-09-02T14:28:26;28.70;33.00